YSTW

Tamworth Airport

Airport
ICAO code
YSTW
IATA Code
TMW
Summary
ICAO Region
APAC
ICAO Territory
Location

Tamworth, New South Wales

Serving
Tamworth
Elevation
1334 ft
Coordinates
31° 4' 41" S , 150° 50' 45" E
KCC
Cfa
Airport WX
Cumulonimbus
Metar
Observation
YSTW 100200Z AUTO 15007KT 120V190 9999 // NCD 16/05 Q1026 RF00.0/000.0
Station
Tamworth Airport
Date/Time
2022-08-10 02:00:00
Wind direction
150°
Wind speed
07 kts
Lowest cloud amount
no clouds detected
Temperature
16°C
Dew point
5°C
Humidity
48%
QNH
1026 hPa
Weather condition
n/a

A regional airport serving Tamworth, a city in the Australian state of New South Wales. It is located 10 km from the town centre.

Climatology

Humid “subtropical” climate (Köppen climate classification Cfa) - characterized by hot, humid summers and cool winters. Significant amounts of precipitation occur in all seasons in most areas. Most summer rainfall occurs during thunderstorms.

Airport map

Aerial View

SKYbrary Partners:

Safety knowledge contributed by: